createdAt,value
2018-08-11T00:00:02.145Z,18.10
2018-08-11T00:02:29.795Z,18.20
2018-08-11T00:04:57.414Z,18.10
2018-08-11T00:07:25.098Z,18.10
2018-08-11T00:09:52.749Z,18.10
2018-08-11T00:12:20.449Z,18.00
2018-08-11T00:14:48.100Z,18.10
2018-08-11T00:17:27.661Z,18.10
2018-08-11T00:19:55.282Z,18.10
2018-08-11T00:22:23.030Z,18.10
2018-08-11T00:24:50.645Z,18.10
2018-08-11T00:27:28.066Z,18.10
2018-08-11T00:29:55.717Z,18.10
2018-08-11T00:32:23.338Z,18.00
2018-08-11T00:34:50.988Z,17.90
2018-08-11T00:37:23.649Z,17.90
2018-08-11T00:39:51.319Z,17.80
2018-08-11T00:42:19.005Z,17.80
2018-08-11T00:44:46.642Z,17.70
2018-08-11T00:47:14.396Z,17.70
2018-08-11T00:49:42.035Z,17.70
2018-08-11T00:52:13.042Z,17.60
2018-08-11T00:54:41.015Z,17.60
2018-08-11T00:57:08.706Z,17.60
2018-08-11T00:59:36.453Z,17.60
2018-08-11T01:02:04.117Z,17.60
2018-08-11T01:04:31.777Z,17.60
2018-08-11T01:07:15.205Z,17.50
2018-08-11T01:09:42.837Z,17.40
2018-08-11T01:12:10.490Z,17.40
2018-08-11T01:14:38.125Z,17.30
2018-08-11T01:17:05.831Z,17.30
2018-08-11T01:19:33.504Z,17.20
2018-08-11T01:22:01.204Z,17.10
2018-08-11T01:24:28.929Z,17.10
2018-08-11T01:26:56.616Z,17.10
2018-08-11T01:29:24.470Z,17.00
2018-08-11T01:31:52.118Z,16.90
2018-08-11T01:34:19.753Z,16.80
2018-08-11T01:36:47.418Z,16.70
2018-08-11T01:39:15.066Z,16.70
2018-08-11T01:41:42.785Z,16.70
2018-08-11T01:44:10.680Z,16.50
2018-08-11T01:46:38.358Z,16.50
2018-08-11T01:49:06.091Z,16.40
2018-08-11T01:51:33.721Z,16.40
2018-08-11T01:54:01.440Z,16.30
2018-08-11T01:56:29.131Z,16.30
2018-08-11T01:58:56.872Z,16.20
2018-08-11T02:01:24.526Z,16.20
2018-08-11T02:03:52.602Z,16.10
2018-08-11T02:06:20.272Z,16.10
2018-08-11T02:08:47.925Z,16.10
2018-08-11T02:11:15.713Z,15.90
2018-08-11T02:13:43.308Z,15.90
2018-08-11T02:16:10.923Z,15.90
2018-08-11T02:18:38.622Z,15.90
2018-08-11T02:21:06.253Z,15.80
2018-08-11T02:23:33.884Z,15.80
2018-08-11T02:26:01.575Z,15.90
2018-08-11T02:28:29.231Z,15.80
2018-08-11T02:30:56.898Z,15.80
2018-08-11T02:33:24.553Z,15.80
2018-08-11T02:35:52.229Z,15.70
2018-08-11T02:38:20.949Z,15.70
2018-08-11T02:40:48.591Z,15.60
2018-08-11T02:43:16.245Z,15.70
2018-08-11T02:45:43.904Z,15.80
2018-08-11T02:48:11.549Z,15.80
2018-08-11T02:50:39.253Z,15.80
2018-08-11T02:53:06.845Z,15.80
2018-08-11T02:55:34.490Z,15.90
2018-08-11T02:58:02.092Z,15.90
2018-08-11T03:00:33.409Z,16.00
2018-08-11T03:03:00.970Z,16.00
2018-08-11T03:05:29.630Z,16.00
2018-08-11T03:07:57.306Z,16.00
2018-08-11T03:10:24.971Z,16.10
2018-08-11T03:12:52.720Z,16.20
2018-08-11T03:15:20.385Z,16.30
2018-08-11T03:17:48.115Z,16.40
2018-08-11T03:20:15.731Z,16.60
2018-08-11T03:22:44.062Z,16.70
2018-08-11T03:25:11.732Z,16.80
2018-08-11T03:27:39.407Z,16.80
2018-08-11T03:30:07.884Z,16.90
2018-08-11T03:32:35.801Z,16.90
2018-08-11T03:35:03.522Z,16.90
2018-08-11T03:37:31.156Z,16.90
2018-08-11T03:39:58.787Z,17.00
2018-08-11T03:42:26.407Z,17.00
2018-08-11T03:44:54.044Z,17.10
2018-08-11T03:47:21.849Z,17.10
2018-08-11T03:49:49.533Z,17.20
2018-08-11T03:52:17.200Z,17.20
2018-08-11T03:54:44.834Z,17.20
2018-08-11T03:57:12.552Z,17.20
2018-08-11T03:59:40.285Z,17.20
2018-08-11T04:02:07.913Z,17.20
2018-08-11T04:04:35.618Z,17.20
2018-08-11T04:07:03.249Z,17.10
2018-08-11T04:09:30.834Z,17.10
2018-08-11T04:11:58.485Z,17.10
2018-08-11T04:14:26.150Z,17.10
2018-08-11T04:16:53.802Z,17.10
2018-08-11T04:19:21.485Z,17.20
2018-08-11T04:21:49.185Z,17.10
2018-08-11T04:24:16.865Z,17.10
2018-08-11T04:26:44.583Z,17.20
2018-08-11T04:29:12.215Z,17.10
2018-08-11T04:31:39.848Z,17.20
2018-08-11T04:34:07.518Z,17.20
2018-08-11T04:36:35.370Z,17.10
2018-08-11T04:39:03.046Z,17.10
2018-08-11T04:41:30.723Z,17.10
2018-08-11T04:43:58.349Z,17.20
2018-08-11T04:46:26.005Z,17.30
2018-08-11T04:48:53.711Z,17.40
2018-08-11T04:51:21.424Z,17.40
2018-08-11T04:53:49.135Z,17.40
2018-08-11T04:56:17.922Z,17.50
2018-08-11T04:58:45.546Z,17.50
2018-08-11T05:01:13.269Z,17.60
2018-08-11T05:03:45.477Z,17.60
2018-08-11T05:06:13.254Z,17.60
2018-08-11T05:08:40.978Z,17.60
2018-08-11T05:11:08.649Z,17.60
2018-08-11T05:13:36.228Z,17.60
2018-08-11T05:16:03.916Z,17.70
2018-08-11T05:18:31.417Z,17.70
2018-08-11T05:20:58.889Z,17.70
2018-08-11T05:23:26.319Z,17.80
2018-08-11T05:25:53.774Z,17.80
2018-08-11T05:28:21.192Z,17.80
2018-08-11T05:30:48.648Z,17.90
2018-08-11T05:33:16.105Z,17.90
2018-08-11T05:35:43.539Z,18.00
2018-08-11T05:38:10.990Z,18.00
2018-08-11T05:40:38.445Z,18.00
2018-08-11T05:43:05.876Z,18.10
2018-08-11T05:45:33.336Z,18.10
2018-08-11T05:48:00.800Z,18.20
2018-08-11T05:50:28.285Z,18.20
2018-08-11T05:53:01.440Z,18.30
2018-08-11T05:55:32.194Z,18.50
2018-08-11T05:57:59.797Z,18.60
2018-08-11T06:00:27.348Z,18.70
2018-08-11T06:02:54.784Z,18.80
2018-08-11T06:05:22.256Z,18.80
2018-08-11T06:07:49.725Z,18.90
2018-08-11T06:10:17.170Z,18.80
2018-08-11T06:12:44.592Z,18.80
2018-08-11T06:15:12.041Z,19.00
2018-08-11T06:17:39.547Z,19.30
2018-08-11T06:20:07.516Z,19.50
2018-08-11T06:22:34.973Z,19.70
2018-08-11T06:25:02.410Z,19.80
2018-08-11T06:27:29.837Z,20.00
2018-08-11T06:29:57.296Z,20.10
2018-08-11T06:32:24.768Z,20.10
2018-08-11T06:34:52.205Z,20.20
2018-08-11T06:37:19.638Z,20.20
2018-08-11T06:39:47.088Z,20.30
2018-08-11T06:42:14.539Z,20.00
2018-08-11T06:44:46.837Z,20.00
2018-08-11T06:47:14.261Z,19.90
2018-08-11T06:49:41.732Z,19.70
2018-08-11T06:52:09.202Z,19.60
2018-08-11T06:54:39.836Z,19.60
2018-08-11T06:57:20.527Z,19.50
2018-08-11T06:59:49.011Z,19.40
2018-08-11T07:02:22.436Z,19.50
2018-08-11T07:04:54.731Z,19.50
2018-08-11T07:07:22.194Z,19.50
2018-08-11T07:09:50.697Z,19.80
2018-08-11T07:12:18.196Z,19.90
2018-08-11T07:14:53.532Z,20.00
2018-08-11T07:17:21.020Z,20.00
2018-08-11T07:19:48.672Z,19.90
2018-08-11T07:22:16.106Z,19.90
2018-08-11T07:24:43.533Z,19.80
2018-08-11T07:27:10.958Z,19.60
2018-08-11T07:29:38.427Z,19.40
2018-08-11T07:32:05.882Z,19.10
2018-08-11T07:34:33.296Z,19.10
2018-08-11T07:37:00.726Z,18.90
2018-08-11T07:39:30.908Z,18.80
2018-08-11T07:41:58.690Z,18.80
2018-08-11T07:44:26.363Z,18.70
2018-08-11T07:47:00.160Z,18.90
2018-08-11T07:49:27.786Z,19.50
2018-08-11T07:51:55.513Z,20.10
2018-08-11T07:54:23.169Z,20.70
2018-08-11T07:57:08.172Z,21.10
2018-08-11T07:59:35.837Z,21.20
2018-08-11T08:02:03.493Z,21.50
2018-08-11T08:04:31.112Z,21.70
2018-08-11T08:06:58.774Z,22.00
2018-08-11T08:09:26.372Z,22.40
2018-08-11T08:11:53.981Z,22.80
2018-08-11T08:14:21.552Z,23.10
2018-08-11T08:16:49.203Z,23.00
2018-08-11T08:19:17.889Z,22.80
2018-08-11T08:21:45.493Z,22.80
2018-08-11T08:24:13.170Z,22.80
2018-08-11T08:26:40.968Z,23.00
2018-08-11T08:29:08.525Z,23.40
2018-08-11T08:31:36.175Z,23.90
2018-08-11T08:34:03.786Z,24.10
2018-08-11T08:36:34.991Z,24.40
2018-08-11T08:39:03.197Z,24.40
2018-08-11T08:41:32.277Z,24.40
2018-08-11T08:44:00.057Z,24.30
2018-08-11T08:55:00.278Z,23.60
2018-08-11T08:57:45.226Z,23.30
2018-08-11T09:00:12.894Z,22.80
2018-08-11T09:02:48.402Z,22.60
2018-08-11T09:05:16.058Z,22.50
2018-08-11T09:07:43.782Z,22.90
2018-08-11T09:10:11.467Z,23.20
2018-08-11T09:12:39.274Z,23.10
2018-08-11T09:15:07.417Z,23.20
2018-08-11T09:17:35.129Z,23.50
2018-08-11T09:20:02.781Z,24.00
2018-08-11T09:22:36.943Z,24.20
2018-08-11T09:25:04.717Z,23.90
2018-08-11T09:27:32.691Z,23.70
2018-08-11T09:30:00.378Z,23.70
2018-08-11T09:32:28.363Z,23.80
2018-08-11T09:34:57.609Z,23.90
2018-08-11T09:37:25.767Z,23.70
2018-08-11T09:40:00.960Z,23.60
2018-08-11T09:42:28.623Z,23.60
2018-08-11T09:44:56.320Z,23.50
2018-08-11T09:47:26.272Z,23.40
2018-08-11T09:49:53.906Z,23.50
2018-08-11T09:52:24.877Z,24.00
2018-08-11T09:54:55.497Z,24.20
2018-08-11T09:57:31.870Z,24.20
2018-08-11T09:59:59.830Z,24.60
2018-08-11T10:02:27.542Z,24.30
2018-08-11T10:04:58.055Z,24.00
2018-08-11T10:07:34.301Z,23.80
2018-08-11T10:10:02.102Z,23.40
2018-08-11T10:12:30.487Z,23.20
2018-08-11T10:14:58.286Z,22.90
2018-08-11T10:17:26.028Z,22.80
2018-08-11T10:19:54.168Z,22.90
2018-08-11T10:22:23.489Z,23.20
2018-08-11T10:24:52.384Z,23.90
2018-08-11T10:27:29.392Z,24.50
2018-08-11T10:29:57.301Z,25.20
2018-08-11T10:32:25.080Z,25.50
2018-08-11T10:34:52.799Z,25.90
2018-08-11T10:37:20.701Z,25.80
2018-08-11T10:39:51.654Z,25.30
2018-08-11T10:42:23.874Z,25.20
2018-08-11T10:44:51.635Z,25.00
2018-08-11T10:47:19.501Z,24.80
2018-08-11T10:49:47.223Z,25.00
2018-08-11T10:52:19.465Z,25.30
2018-08-11T10:55:03.138Z,25.40
2018-08-11T10:57:32.316Z,25.50
2018-08-11T11:02:48.979Z,26.00
2018-08-11T11:05:30.388Z,26.40
2018-08-11T11:07:58.141Z,26.80
2018-08-11T11:10:25.762Z,26.80
2018-08-11T11:12:53.462Z,26.70
2018-08-11T11:15:21.169Z,26.60
2018-08-11T11:17:58.992Z,26.70
2018-08-11T11:20:26.610Z,26.50
2018-08-11T11:22:54.199Z,26.20
2018-08-11T11:25:21.918Z,25.80
2018-08-11T11:27:49.574Z,25.60
2018-08-11T11:30:17.221Z,25.50
2018-08-11T11:32:44.886Z,25.50
2018-08-11T11:35:13.618Z,25.40
2018-08-11T11:37:41.395Z,25.20
2018-08-11T11:40:16.357Z,25.10
2018-08-11T11:42:43.931Z,25.10
2018-08-11T11:45:11.599Z,25.60
2018-08-11T11:47:41.314Z,26.30
2018-08-11T11:50:08.966Z,26.80
2018-08-11T11:52:36.622Z,27.40
2018-08-11T11:55:04.298Z,27.80
2018-08-11T11:57:32.109Z,28.20
2018-08-11T12:00:00.043Z,28.50
2018-08-11T12:02:27.674Z,28.30
2018-08-11T12:04:55.313Z,28.30
2018-08-11T12:07:22.958Z,28.30
2018-08-11T12:09:50.581Z,27.80
2018-08-11T12:12:18.217Z,27.40
2018-08-11T12:14:45.857Z,27.40
2018-08-11T12:17:14.592Z,27.30
2018-08-11T12:19:42.270Z,27.00
2018-08-11T12:22:09.819Z,26.60
2018-08-11T12:24:37.429Z,26.30
2018-08-11T12:27:05.074Z,26.00
2018-08-11T12:29:32.717Z,25.50
2018-08-11T12:32:00.328Z,25.30
2018-08-11T12:34:28.032Z,25.30
2018-08-11T12:36:55.630Z,25.60
2018-08-11T12:39:23.272Z,25.60
2018-08-11T12:41:50.995Z,25.60
2018-08-11T12:44:18.628Z,25.30
2018-08-11T12:46:46.267Z,25.30
2018-08-11T12:49:13.919Z,25.20
2018-08-11T12:51:41.554Z,25.50
2018-08-11T12:54:09.142Z,25.90
2018-08-11T12:56:36.778Z,26.30
2018-08-11T12:59:04.477Z,26.60
2018-08-11T13:01:32.185Z,26.60
2018-08-11T13:04:11.643Z,26.70
2018-08-11T13:06:39.365Z,26.70
2018-08-11T13:09:07.606Z,26.60
2018-08-11T13:11:35.265Z,26.90
2018-08-11T13:14:02.994Z,27.10
2018-08-11T13:16:30.706Z,27.30
2018-08-11T13:18:58.298Z,27.40
2018-08-11T13:21:25.972Z,27.40
2018-08-11T13:23:54.574Z,27.10
2018-08-11T13:26:22.141Z,26.80
2018-08-11T13:28:49.917Z,26.30
2018-08-11T13:31:17.597Z,26.00
2018-08-11T13:33:50.818Z,26.00
2018-08-11T13:36:18.504Z,26.20
2018-08-11T13:38:46.232Z,26.20
2018-08-11T13:41:13.793Z,26.00
2018-08-11T13:43:41.578Z,25.90
2018-08-11T13:49:00.646Z,26.40
2018-08-11T13:51:28.367Z,26.60
2018-08-11T13:53:56.071Z,26.80
2018-08-11T13:56:23.806Z,26.80
2018-08-11T13:58:51.538Z,26.70
2018-08-11T14:01:19.280Z,26.20
2018-08-11T14:03:46.908Z,26.10
2018-08-11T14:06:14.602Z,26.30
2018-08-11T14:08:55.873Z,26.40
2018-08-11T14:11:23.526Z,26.40
2018-08-11T14:13:51.271Z,26.30
2018-08-11T14:16:19.331Z,26.10
2018-08-11T14:18:47.095Z,26.00
2018-08-11T14:21:14.790Z,25.90
2018-08-11T14:23:42.512Z,25.80
2018-08-11T14:26:10.314Z,25.50
2018-08-11T14:28:37.964Z,25.50
2018-08-11T14:31:05.725Z,25.60
2018-08-11T14:33:45.603Z,25.40
2018-08-11T14:36:13.254Z,25.30
2018-08-11T14:38:40.930Z,25.40
2018-08-11T14:41:08.627Z,25.70
2018-08-11T14:43:36.390Z,25.70
2018-08-11T14:46:04.770Z,25.70
2018-08-11T14:48:32.471Z,25.70
2018-08-11T14:51:09.601Z,25.80
2018-08-11T14:53:37.315Z,26.00
2018-08-11T14:56:09.808Z,26.10
2018-08-11T14:58:37.536Z,26.20
2018-08-11T15:01:05.417Z,26.30
2018-08-11T15:03:33.420Z,26.40
2018-08-11T15:06:01.367Z,26.40
2018-08-11T15:08:29.867Z,26.30
2018-08-11T15:10:57.817Z,26.30
2018-08-11T15:13:25.593Z,26.20
2018-08-11T15:15:54.657Z,26.10
2018-08-11T15:18:22.429Z,26.10
2018-08-11T15:20:50.177Z,25.80
2018-08-11T15:23:17.883Z,25.80
2018-08-11T15:25:45.582Z,25.60
2018-08-11T15:28:13.398Z,25.10
2018-08-11T15:30:41.108Z,25.00
2018-08-11T15:36:15.732Z,25.00
2018-08-11T15:38:43.573Z,25.00
2018-08-11T15:41:11.239Z,24.90
2018-08-11T15:43:38.933Z,24.90
2018-08-11T15:46:06.683Z,25.10
2018-08-11T15:48:34.836Z,25.20
2018-08-11T15:51:02.559Z,25.30
2018-08-11T15:53:30.205Z,25.30
2018-08-11T15:56:07.700Z,25.20
2018-08-11T15:58:35.398Z,25.20
2018-08-11T16:01:03.005Z,25.20
2018-08-11T16:03:30.668Z,25.10
2018-08-11T16:05:58.298Z,25.10
2018-08-11T16:08:30.970Z,25.10
2018-08-11T16:10:58.596Z,25.10
2018-08-11T16:13:26.240Z,25.00
2018-08-11T16:15:54.657Z,24.90
2018-08-11T16:18:22.323Z,24.80
2018-08-11T16:20:49.918Z,24.80
2018-08-11T16:26:06.766Z,24.80
2018-08-11T16:28:34.357Z,24.80
2018-08-11T16:31:01.948Z,24.70
2018-08-11T16:33:29.643Z,24.60
2018-08-11T16:35:57.301Z,24.50
2018-08-11T16:38:37.605Z,24.50
2018-08-11T16:41:05.438Z,24.60
2018-08-11T16:43:33.098Z,24.50
2018-08-11T16:46:00.835Z,24.50
2018-08-11T16:48:28.440Z,24.50
2018-08-11T16:50:56.076Z,24.40
2018-08-11T16:53:23.694Z,24.30
2018-08-11T16:55:51.264Z,24.30
2018-08-11T16:58:18.808Z,24.30
2018-08-11T17:00:46.438Z,24.20
2018-08-11T17:03:14.048Z,24.20
2018-08-11T17:05:41.675Z,24.30
2018-08-11T17:08:09.320Z,24.30
2018-08-11T17:10:37.087Z,24.30
2018-08-11T17:13:20.874Z,24.20
2018-08-11T17:15:48.658Z,24.00
2018-08-11T17:18:16.327Z,24.00
2018-08-11T17:20:45.222Z,24.00
2018-08-11T17:23:12.868Z,24.00
2018-08-11T17:25:40.570Z,23.90
2018-08-11T17:28:08.272Z,23.80
2018-08-11T17:30:36.733Z,23.60
2018-08-11T17:33:11.764Z,23.50
2018-08-11T17:35:39.434Z,23.50
2018-08-11T17:38:07.041Z,23.50
2018-08-11T17:40:42.866Z,23.50
2018-08-11T17:43:10.534Z,23.40
2018-08-11T17:45:38.429Z,23.40
2018-08-11T17:48:06.049Z,23.20
2018-08-11T17:50:38.228Z,23.20
2018-08-11T17:53:05.987Z,23.10
2018-08-11T17:55:33.668Z,23.10
2018-08-11T17:58:04.688Z,23.00
2018-08-11T18:00:32.274Z,23.00
2018-08-11T18:02:59.924Z,23.10
2018-08-11T18:05:27.581Z,23.10
2018-08-11T18:07:55.288Z,23.00
2018-08-11T18:10:27.464Z,23.00
2018-08-11T18:12:55.213Z,22.90
2018-08-11T18:15:22.729Z,22.90
2018-08-11T18:17:50.384Z,22.80
2018-08-11T18:20:17.995Z,22.80
2018-08-11T18:22:45.841Z,22.80
2018-08-11T18:25:15.545Z,22.80
2018-08-11T18:27:43.431Z,22.70
2018-08-11T18:30:12.012Z,22.70
2018-08-11T18:32:39.726Z,22.70
2018-08-11T18:35:09.558Z,22.60
2018-08-11T18:37:37.450Z,22.60
2018-08-11T18:40:05.426Z,22.60
2018-08-11T18:42:33.177Z,22.60
2018-08-11T18:45:01.278Z,22.50
2018-08-11T18:47:28.982Z,22.40
2018-08-11T18:49:56.662Z,22.50
2018-08-11T18:52:24.329Z,22.40
2018-08-11T18:55:00.274Z,22.30
2018-08-11T18:57:27.976Z,22.20
2018-08-11T18:59:55.678Z,22.10
2018-08-11T19:02:23.356Z,22.00
2018-08-11T19:04:50.957Z,21.90
2018-08-11T19:07:18.583Z,21.80
2018-08-11T19:09:46.226Z,21.80
2018-08-11T19:12:13.842Z,21.70
2018-08-11T19:14:41.498Z,21.60
2018-08-11T19:17:09.178Z,21.40
2018-08-11T19:19:36.826Z,21.40
2018-08-11T19:22:04.434Z,21.30
2018-08-11T19:24:32.100Z,21.20
2018-08-11T19:26:59.815Z,21.20
2018-08-11T19:29:27.649Z,21.10
2018-08-11T19:31:55.303Z,21.00
2018-08-11T19:34:22.969Z,20.80
2018-08-11T19:36:50.712Z,20.80
2018-08-11T19:39:30.088Z,20.70
2018-08-11T19:41:57.702Z,20.50
2018-08-11T19:44:25.371Z,20.50
2018-08-11T19:46:58.998Z,20.40
2018-08-11T19:49:28.357Z,20.30
2018-08-11T19:51:56.044Z,20.30
2018-08-11T19:54:23.828Z,20.10
2018-08-11T19:56:51.577Z,20.10
2018-08-11T19:59:19.112Z,20.00
2018-08-11T20:01:46.625Z,19.90
2018-08-11T20:04:14.934Z,19.80
2018-08-11T20:06:42.801Z,19.60
2018-08-11T20:09:10.961Z,19.50
2018-08-11T20:11:38.417Z,19.50
2018-08-11T20:14:05.849Z,19.50
2018-08-11T20:16:33.306Z,19.40
2018-08-11T20:19:00.785Z,19.30
2018-08-11T20:21:28.201Z,19.30
2018-08-11T20:23:55.640Z,19.20
2018-08-11T20:26:23.268Z,19.10
